Agua Caliente Hot Springs, CA

12:07 PM PST on March 06, 2015 (GMT -0800)
Pinezanita RV Park & Campgrounds | Change Station
CLOSE
Current Station
Personal Weather Station
Location: Julian, CA
Elevation: 4698 ft
Nearby Weather Stations
Active Advisory: Wind Advisory Active Notice: Public Information Statement

Elev 4698 ft 33.04 °N, 116.56 °W | Updated 17 seconds ago

Clear
Clear
60.6 °F
Feels Like 60.6 °F
N
10.1
Wind Variable Wind from NE
Gusts 22.0 mph

Today
High -- | Low -- °F
--% Chance of Precip.
Yesterday
High -- | Low -- °F
Precip. -- in
6:08 AM 5:47 PM
Full, 99% visible
Pressure 30.01 in
Visibility -9999.0 miles
Clouds
Dew Point 17 °F
Humidity 18%
Rainfall in
Snow Depth Not available.
UV Not available.
Pollen 8.90 out of 12
Air Quality Not available.
Flu Activity Not available.
METAR KCZZ 061952Z AUTO 04019G29KT 19/M08 A3008 RMK AO1 PK WND 04031/1856 SLP163 T01891078

More Conditions Fewer Conditions

Pressure 30.01 in
Visibility -9999.0 miles
Clouds
Dew Point 17 °F
Humidity 18%
Rainfall in
Snow Depth Not available.
UV Not available.
Pollen 8.90 out of 12
Air Quality Not available.
Flu Activity Not available.
METAR KCZZ 061952Z AUTO 04019G29KT 19/M08 A3008 RMK AO1 PK WND 04031/1856 SLP163 T01891078

More Conditions Fewer Conditions

10-Day Weather Forecast

Almanac

Astronomy

Mar. 06, 2015 Rise Set
Actual Time
Civil Twilight
Nautical Twilight
Astronomical Twilight
Moon
Length of Visible Light
Length of Day
Tomorrow will be .
, % of the Moon is Illuminated

Today's Extremes

State Highs State Lows

Community

WunderPhotos

Upload Photos

1,803,386 photos uploaded!

WunderBlogs® & News

Nearby

Air Quality

  Air Quality AQ Index Pollutant
Not available.

Snow Depth

Station Depth Elevation

Earthquake Activity

City Distance Mag. Time & Date
Minimum magnitude displayed is 2.5.

Coastal Water Temperatures

Place Temperature

Nearby Weather Stations

Wind Advisory
Statement as of 3:05 AM PST on March 06, 2015

... Wind Advisory in effect until noon PST Saturday...

The National Weather Service in San Diego has issued a Wind
Advisory... which is in effect until noon PST Saturday.

* Winds... areas of northeast to east winds 20 to 30 mph with gusts
to 50 mph. Isolated gusts to 70 mph.

* Timing... strongest winds this morning and again late tonight
through Saturday morning.

* Impacts... strong winds will make driving difficult for high
profile vehicles.

Precautionary/preparedness actions...

A Wind Advisory means that winds of 35 mph are expected. Winds
this strong can make driving difficult... especially for high
profile vehicles. Use extra caution.